Time;durP1;ratioP1;P1;durP2;ratioP2;P2;SDS_P1;SDS_P2;PMS_P1;PMS_P2;Temp;Humidity;BMP_temperature;BMP_pressure;BME280_temperature;BME280_humidity;BME280_pressure;Samples;Min_cycle;Max_cycle;Signal;HPM_P1;HPM_P2
2022/03/30 00:00:29;;;;;;;55.13;24.02;;;2.60;99.90;;;;;;5090565;28;20044;-41
2022/03/30 00:02:55;;;;;;;46.83;23.75;;;2.70;99.90;;;;;;5090167;28;20139;-41
2022/03/30 00:05:21;;;;;;;51.03;24.25;;;2.70;99.90;;;;;;5090248;28;20094;-41
2022/03/30 00:07:54;;;;;;;49.63;22.13;;;2.70;99.90;;;;;;5090519;28;20047;-42
2022/03/30 00:10:20;;;;;;;44.58;23.80;;;2.70;99.90;;;;;;5090304;28;20101;-41
2022/03/30 00:12:46;;;;;;;51.45;22.65;;;2.70;99.90;;;;;;5090029;28;20044;-41
2022/03/30 00:15:12;;;;;;;46.53;22.83;;;2.70;99.90;;;;;;5089314;28;20127;-41
2022/03/30 00:17:38;;;;;;;56.65;22.40;;;3.10;99.90;;;;;;5090017;28;20130;-41
2022/03/30 00:20:04;;;;;;;50.53;24.15;;;4.70;99.90;;;;;;5090651;28;20115;-43
2022/03/30 00:22:30;;;;;;;44.17;21.50;;;2.80;99.90;;;;;;5086784;28;20428;-41
2022/03/30 00:24:55;;;;;;;45.22;22.92;;;2.80;99.90;;;;;;5090714;28;20040;-42
2022/03/30 00:27:21;;;;;;;55.20;24.80;;;2.80;99.90;;;;;;5090945;28;20119;-42
2022/03/30 00:29:48;;;;;;;50.25;22.92;;;2.80;99.90;;;;;;5090138;28;20044;-42
2022/03/30 00:32:14;;;;;;;43.03;21.30;;;2.70;99.90;;;;;;5089445;28;20044;-42
2022/03/30 00:34:39;;;;;;;39.40;20.90;;;2.70;99.90;;;;;;5090476;28;20039;-42
2022/03/30 00:37:08;;;;;;;57.80;22.88;;;2.70;99.90;;;;;;5088866;28;20131;-42
2022/03/30 00:39:34;;;;;;;41.33;20.40;;;2.60;99.90;;;;;;5089537;28;20126;-41
2022/03/30 00:42:01;;;;;;;45.97;22.25;;;2.60;99.90;;;;;;5071180;28;20062;-42
2022/03/30 00:44:26;;;;;;;45.47;23.10;;;2.30;99.90;;;;;;5089776;28;20071;-43
2022/03/30 00:46:52;;;;;;;45.53;22.33;;;2.70;99.90;;;;;;5084912;28;20565;-43
2022/03/30 00:49:18;;;;;;;44.63;20.67;;;2.60;99.90;;;;;;5090202;28;20119;-42
2022/03/30 00:51:44;;;;;;;43.67;19.58;;;2.50;99.90;;;;;;5090707;28;20048;-42
2022/03/30 00:54:10;;;;;;;43.05;20.23;;;2.50;99.90;;;;;;5090562;28;20498;-41
2022/03/30 00:56:42;;;;;;;43.78;20.70;;;2.50;99.90;;;;;;5090406;28;20046;-42
2022/03/30 00:59:07;;;;;;;44.05;20.60;;;2.70;99.90;;;;;;5089830;28;20436;-41
2022/03/30 01:01:34;;;;;;;42.08;20.08;;;2.40;99.90;;;;;;5089053;28;20032;-42
2022/03/30 01:04:04;;;;;;;39.00;19.75;;;2.40;99.90;;;;;;5089227;28;20052;-41
2022/03/30 01:06:30;;;;;;;42.15;21.38;;;2.40;99.90;;;;;;5089030;28;20482;-41
2022/03/30 01:08:56;;;;;;;41.13;19.35;;;2.40;99.90;;;;;;5070766;28;20047;-42
2022/03/30 01:11:22;;;;;;;43.20;18.40;;;2.30;99.90;;;;;;5090400;28;20040;-41
2022/03/30 01:13:49;;;;;;;39.50;19.38;;;2.30;99.90;;;;;;5089469;28;20040;-41
2022/03/30 01:16:15;;;;;;;46.78;19.88;;;2.20;99.90;;;;;;5088672;28;20105;-41
2022/03/30 01:18:41;;;;;;;42.00;19.90;;;2.20;99.90;;;;;;5089273;28;20102;-41
2022/03/30 01:21:10;;;;;;;36.58;18.27;;;2.10;99.90;;;;;;5089097;28;20047;-41
2022/03/30 01:23:36;;;;;;;40.53;17.92;;;2.00;99.90;;;;;;5088755;28;20040;-42
2022/03/30 01:26:06;;;;;;;45.10;20.05;;;2.00;99.90;;;;;;5087415;28;20063;-43
2022/03/30 01:28:35;;;;;;;42.75;18.92;;;1.90;99.90;;;;;;5088369;28;20082;-41
2022/03/30 01:33:47;;;;;;;39.75;16.98;;;1.80;99.90;;;;;;5089252;28;20044;-42
2022/03/30 01:36:16;;;;;;;42.10;18.58;;;1.80;99.90;;;;;;5078563;28;20058;-42
2022/03/30 01:38:43;;;;;;;43.08;17.70;;;1.70;99.90;;;;;;5089298;28;20768;-43
2022/03/30 01:41:09;;;;;;;38.40;17.80;;;1.70;99.90;;;;;;5089879;28;20044;-41
2022/03/30 01:43:34;;;;;;;46.20;18.45;;;1.70;99.90;;;;;;5089031;28;20040;-41
2022/03/30 01:46:00;;;;;;;42.00;18.70;;;1.70;99.90;;;;;;5088339;28;20116;-41
2022/03/30 01:48:26;;;;;;;46.65;20.02;;;1.70;99.90;;;;;;5088330;28;20485;-42
2022/03/30 01:50:52;;;;;;;41.22;17.42;;;1.70;99.90;;;;;;5089600;28;20044;-42
2022/03/30 01:53:18;;;;;;;44.80;18.77;;;1.70;99.90;;;;;;5089721;28;20055;-41
2022/03/30 01:55:44;;;;;;;34.95;17.23;;;1.70;99.90;;;;;;5089115;28;20126;-42
2022/03/30 01:58:10;;;;;;;41.80;19.10;;;1.70;99.90;;;;;;5088728;28;20032;-42
2022/03/30 02:00:36;;;;;;;40.83;17.88;;;1.80;99.90;;;;;;5088597;28;20523;-44
2022/03/30 02:03:02;;;;;;;38.03;19.45;;;2.00;99.90;;;;;;5088864;28;20071;-41
2022/03/30 02:05:28;;;;;;;46.20;17.63;;;2.00;99.90;;;;;;5088862;28;20040;-41
2022/03/30 02:07:54;;;;;;;42.00;18.08;;;2.00;99.90;;;;;;5088319;28;20044;-41
2022/03/30 02:10:20;;;;;;;42.63;18.40;;;2.10;99.90;;;;;;5088598;28;20120;-42
2022/03/30 02:12:46;;;;;;;45.47;18.25;;;2.20;99.90;;;;;;5088385;28;20470;-42
2022/03/30 02:15:13;;;;;;;45.00;19.75;;;2.20;99.90;;;;;;5088259;28;20054;-41
2022/03/30 02:17:39;;;;;;;38.60;19.33;;;2.30;99.90;;;;;;5088201;28;20051;-42
2022/03/30 02:20:07;;;;;;;36.58;17.50;;;2.40;99.90;;;;;;5088965;28;20071;-42
2022/03/30 02:22:32;;;;;;;41.78;17.77;;;2.50;99.90;;;;;;5088212;28;20055;-42
2022/03/30 02:24:58;;;;;;;43.85;16.98;;;2.50;99.90;;;;;;5089038;28;20039;-41
2022/03/30 02:27:24;;;;;;;46.92;19.02;;;2.60;99.90;;;;;;5088134;28;20474;-42
2022/03/30 02:29:51;;;;;;;42.15;18.58;;;2.70;99.90;;;;;;5084445;28;20036;-42
2022/03/30 02:32:18;;;;;;;43.20;18.60;;;2.70;99.90;;;;;;5088911;28;20036;-43
2022/03/30 02:34:45;;;;;;;39.85;18.65;;;2.80;99.90;;;;;;5088475;28;20089;-42
2022/03/30 02:37:11;;;;;;;39.20;18.77;;;2.90;99.90;;;;;;5086970;28;20089;-43
2022/03/30 02:39:38;;;;;;;40.90;18.17;;;3.00;99.90;;;;;;5087976;28;20040;-43
2022/03/30 02:42:07;;;;;;;43.53;18.40;;;3.10;99.90;;;;;;5088899;28;20109;-42
2022/03/30 02:44:33;;;;;;;35.92;17.42;;;3.20;99.90;;;;;;5087306;28;20060;-42
2022/03/30 02:47:00;;;;;;;45.88;18.52;;;3.20;99.90;;;;;;5064406;28;20048;-41
2022/03/30 02:49:27;;;;;;;44.45;20.30;;;3.30;99.90;;;;;;5070317;28;20055;-41
2022/03/30 02:51:53;;;;;;;38.70;18.75;;;3.30;99.90;;;;;;5088527;28;20470;-43
2022/03/30 02:54:19;;;;;;;52.78;18.40;;;3.40;99.90;;;;;;5088798;28;20048;-41
2022/03/30 02:56:45;;;;;;;42.80;18.58;;;3.40;99.90;;;;;;5088080;28;20550;-42
2022/03/30 02:59:11;;;;;;;41.55;17.17;;;3.50;99.90;;;;;;5087986;28;20115;-41
2022/03/30 03:01:37;;;;;;;42.92;17.35;;;4.70;99.90;;;;;;5087786;28;20063;-42
2022/03/30 03:04:03;;;;;;;47.88;17.80;;;3.60;99.90;;;;;;5088795;28;20048;-42
2022/03/30 03:06:29;;;;;;;41.90;17.50;;;3.60;99.90;;;;;;5087579;28;20040;-43
2022/03/30 03:08:57;;;;;;;43.90;17.35;;;3.70;99.90;;;;;;5087873;28;20036;-41
2022/03/30 03:11:23;;;;;;;52.40;19.17;;;4.40;99.90;;;;;;5090715;28;20044;-42
2022/03/30 03:13:49;;;;;;;40.30;17.45;;;5.50;99.90;;;;;;5092166;28;20717;-42
2022/03/30 03:16:14;;;;;;;41.92;17.80;;;3.80;99.90;;;;;;5091492;28;20039;-42
2022/03/30 03:18:40;;;;;;;45.33;19.42;;;3.80;99.90;;;;;;5092047;28;20627;-41
2022/03/30 03:21:06;;;;;;;39.25;17.90;;;3.80;99.90;;;;;;5092360;28;20374;-41
2022/03/30 03:23:31;;;;;;;52.58;18.70;;;3.80;99.90;;;;;;5091216;28;20109;-42
2022/03/30 03:25:57;;;;;;;31.80;16.98;;;3.80;99.90;;;;;;5089211;28;20032;-41
2022/03/30 03:28:23;;;;;;;42.00;19.63;;;3.90;99.90;;;;;;5091524;28;20040;-43
2022/03/30 03:30:49;;;;;;;43.42;16.40;;;3.90;99.90;;;;;;5091410;28;20040;-43
2022/03/30 03:33:15;;;;;;;43.17;17.55;;;3.90;99.90;;;;;;5091592;28;20764;-42
2022/03/30 03:35:41;;;;;;;35.67;16.85;;;3.90;99.90;;;;;;5086035;28;20323;-42
2022/03/30 03:38:08;;;;;;;42.25;18.00;;;2.40;99.90;;;;;;5036543;28;20140;-42
2022/03/30 03:40:35;;;;;;;37.13;17.20;;;4.00;99.90;;;;;;5091532;28;20044;-42
2022/03/30 03:43:02;;;;;;;38.10;16.50;;;4.10;99.90;;;;;;5091756;28;20040;-42
2022/03/30 03:45:28;;;;;;;38.95;18.02;;;4.00;99.90;;;;;;5091310;28;20051;-41
2022/03/30 03:47:55;;;;;;;36.50;17.00;;;4.00;99.90;;;;;;5091148;28;20039;-41
2022/03/30 03:50:21;;;;;;;40.35;17.33;;;4.10;99.90;;;;;;5091269;28;20439;-41
2022/03/30 03:52:47;;;;;;;43.75;17.50;;;3.90;99.90;;;;;;5090816;28;20044;-41
2022/03/30 03:55:12;;;;;;;42.35;17.73;;;4.40;99.90;;;;;;5091186;28;20739;-42
2022/03/30 03:57:39;;;;;;;35.30;17.13;;;4.10;99.90;;;;;;5091603;28;20439;-41
2022/03/30 04:00:07;;;;;;;36.28;19.30;;;4.10;99.90;;;;;;5092060;28;20044;-42
2022/03/30 04:02:33;;;;;;;43.00;18.23;;;4.20;99.90;;;;;;5090996;28;20060;-42
2022/03/30 04:04:59;;;;;;;36.10;17.35;;;4.20;99.90;;;;;;5091334;28;20043;-41
2022/03/30 04:07:24;;;;;;;46.97;18.70;;;4.20;99.90;;;;;;5091711;28;20135;-42
2022/03/30 04:09:50;;;;;;;39.05;16.45;;;4.20;99.90;;;;;;5091239;28;20051;-42
2022/03/30 04:12:16;;;;;;;42.80;16.95;;;4.20;99.90;;;;;;5091322;28;20047;-43
2022/03/30 04:14:41;;;;;;;34.10;17.48;;;4.20;99.90;;;;;;5091249;28;20110;-42
2022/03/30 04:17:07;;;;;;;39.40;18.35;;;4.30;99.90;;;;;;5090905;28;20521;-43
2022/03/30 04:19:33;;;;;;;40.55;17.60;;;4.30;99.90;;;;;;5091355;28;20707;-43
2022/03/30 04:21:59;;;;;;;35.85;16.73;;;4.40;99.90;;;;;;5085680;28;20036;-42
2022/03/30 04:24:24;;;;;;;36.08;17.27;;;4.30;99.90;;;;;;5091370;28;20050;-41
2022/03/30 04:26:50;;;;;;;36.38;17.27;;;5.40;99.90;;;;;;5090551;28;20119;-42
2022/03/30 04:29:16;;;;;;;33.85;16.10;;;4.40;99.90;;;;;;5090963;28;20043;-41
2022/03/30 04:31:43;;;;;;;39.60;18.02;;;4.40;99.90;;;;;;5090411;28;20058;-42
2022/03/30 04:34:09;;;;;;;39.25;17.40;;;4.40;99.90;;;;;;5091092;28;20032;-43
2022/03/30 04:36:34;;;;;;;37.90;15.40;;;4.50;99.90;;;;;;5089436;28;20470;-42
2022/03/30 04:39:00;;;;;;;39.67;16.58;;;4.50;99.90;;;;;;5071978;28;20032;-41
2022/03/30 04:41:26;;;;;;;33.17;14.60;;;4.50;99.90;;;;;;5090501;28;20478;-42
2022/03/30 04:43:52;;;;;;;26.08;13.50;;;4.50;99.90;;;;;;5090169;28;20040;-41
2022/03/30 04:46:17;;;;;;;28.70;13.45;;;4.50;99.90;;;;;;5089460;28;20048;-43
2022/03/30 04:48:43;;;;;;;22.40;10.50;;;4.50;99.90;;;;;;5089882;28;20425;-42
2022/03/30 04:51:09;;;;;;;20.17;8.18;;;4.50;99.90;;;;;;5090397;28;20544;-42
2022/03/30 04:53:35;;;;;;;14.73;6.80;;;4.60;99.90;;;;;;5089872;28;20056;-43
2022/03/30 04:56:00;;;;;;;10.68;4.95;;;4.40;99.90;;;;;;5089887;28;20079;-44
2022/03/30 04:58:26;;;;;;;6.35;3.05;;;4.60;99.90;;;;;;5089800;28;20131;-42
2022/03/30 05:00:52;;;;;;;4.30;2.15;;;4.60;99.90;;;;;;5089884;28;20044;-43
2022/03/30 05:03:17;;;;;;;3.22;1.40;;;4.60;99.90;;;;;;5089478;28;20148;-41
2022/03/30 05:05:44;;;;;;;4.10;1.38;;;4.60;99.90;;;;;;5089004;28;20046;-42
2022/03/30 05:08:10;;;;;;;5.63;2.15;;;4.50;99.90;;;;;;5088966;28;20028;-44
2022/03/30 05:10:35;;;;;;;4.88;1.45;;;4.60;99.90;;;;;;5089198;28;20648;-44
2022/03/30 05:13:04;;;;;;;3.15;0.80;;;4.60;99.90;;;;;;5089198;28;20036;-41
2022/03/30 05:15:30;;;;;;;2.00;0.85;;;4.60;99.90;;;;;;5089599;28;20139;-42
2022/03/30 05:17:57;;;;;;;2.00;0.93;;;4.60;99.90;;;;;;5088954;28;20048;-42
2022/03/30 05:20:23;;;;;;;1.92;0.85;;;4.60;99.90;;;;;;5089697;28;20129;-42
2022/03/30 05:22:49;;;;;;;3.28;1.20;;;4.60;99.90;;;;;;5089612;28;20122;-41
2022/03/30 05:25:15;;;;;;;2.35;1.10;;;4.60;99.90;;;;;;5089807;28;20115;-43
2022/03/30 05:27:42;;;;;;;1.40;0.80;;;4.50;99.90;;;;;;5088779;28;20681;-43
2022/03/30 05:30:09;;;;;;;2.03;0.90;;;4.50;99.90;;;;;;5088596;28;20048;-41
2022/03/30 05:32:44;;;;;;;3.03;1.10;;;4.50;99.90;;;;;;5089311;28;20506;-43
2022/03/30 05:35:10;;;;;;;5.10;1.95;;;4.50;99.90;;;;;;5089068;28;20042;-42
2022/03/30 05:37:36;;;;;;;5.53;2.85;;;4.60;99.90;;;;;;5088477;28;20122;-41
2022/03/30 05:40:04;;;;;;;4.03;2.25;;;4.60;99.90;;;;;;5088470;28;20071;-43
2022/03/30 05:42:29;;;;;;;4.18;2.53;;;4.60;99.90;;;;;;5088972;28;20166;-43
2022/03/30 05:44:55;;;;;;;4.53;2.75;;;4.50;99.90;;;;;;5089245;28;20131;-42
2022/03/30 05:47:21;;;;;;;5.25;2.78;;;4.50;99.90;;;;;;5088417;28;20060;-42
2022/03/30 05:49:47;;;;;;;5.80;3.28;;;4.40;99.90;;;;;;5088232;28;20592;-42
2022/03/30 05:52:13;;;;;;;4.88;2.63;;;4.40;99.90;;;;;;5088154;28;20055;-41
2022/03/30 05:54:39;;;;;;;4.40;2.70;;;4.40;99.90;;;;;;5088725;28;20044;-43
2022/03/30 05:57:05;;;;;;;3.95;2.33;;;4.40;99.90;;;;;;5088075;28;20043;-42
2022/03/30 05:59:34;;;;;;;5.35;2.47;;;4.10;99.90;;;;;;5088544;28;20047;-41
2022/03/30 06:02:01;;;;;;;6.38;1.92;;;4.40;99.90;;;;;;5088543;28;20058;-43
2022/03/30 06:04:28;;;;;;;4.47;2.50;;;4.40;99.90;;;;;;5088100;28;20055;-41
2022/03/30 06:06:53;;;;;;;7.68;3.53;;;4.50;99.90;;;;;;5087878;28;20784;-41
2022/03/30 06:09:19;;;;;;;5.30;3.63;;;4.50;99.90;;;;;;5088629;28;20047;-42
2022/03/30 06:11:46;;;;;;;6.72;4.05;;;4.50;99.90;;;;;;5088774;28;20478;-43
2022/03/30 06:14:14;;;;;;;6.78;4.70;;;4.50;99.90;;;;;;5089079;28;20044;-42
2022/03/30 06:16:40;;;;;;;5.38;3.83;;;4.50;99.90;;;;;;5088800;28;20048;-43
2022/03/30 06:19:06;;;;;;;5.95;4.22;;;4.50;99.90;;;;;;5088630;28;20409;-42
2022/03/30 06:21:31;;;;;;;4.93;3.30;;;4.60;99.90;;;;;;5088976;28;20043;-43
2022/03/30 06:24:01;;;;;;;3.63;2.33;;;4.80;99.90;;;;;;5088906;28;20047;-42
2022/03/30 06:26:27;;;;;;;3.55;1.00;;;4.80;99.90;;;;;;5088658;28;20036;-42
2022/03/30 06:28:53;;;;;;;1.25;0.40;;;5.00;99.90;;;;;;5088852;28;20043;-43
2022/03/30 06:31:19;;;;;;;1.00;0.30;;;5.20;99.90;;;;;;5088036;28;20039;-43
2022/03/30 06:33:47;;;;;;;0.60;0.20;;;6.40;99.90;;;;;;5087729;28;20028;-42
2022/03/30 06:36:13;;;;;;;1.90;0.20;;;5.70;99.90;;;;;;5088338;28;20311;-44
2022/03/30 06:38:39;;;;;;;0.90;0.20;;;6.00;99.90;;;;;;5088444;28;20242;-43
2022/03/30 06:41:07;;;;;;;1.30;0.25;;;6.20;99.90;;;;;;5088022;28;20044;-42
2022/03/30 06:43:34;;;;;;;1.27;0.40;;;6.40;99.90;;;;;;5088186;28;20537;-42
2022/03/30 06:45:59;;;;;;;2.20;0.20;;;6.50;99.90;;;;;;5087967;28;20035;-42
2022/03/30 06:48:25;;;;;;;1.63;0.40;;;7.50;99.90;;;;;;5089177;28;20046;-42
2022/03/30 06:50:52;;;;;;;3.03;0.20;;;6.80;99.90;;;;;;5088137;28;20490;-43
2022/03/30 06:53:18;;;;;;;0.60;0.30;;;7.30;99.90;;;;;;5088066;28;20047;-43
2022/03/30 06:55:44;;;;;;;1.08;0.20;;;7.10;99.90;;;;;;5088919;28;20028;-43
2022/03/30 06:58:09;;;;;;;0.80;0.20;;;7.20;99.90;;;;;;5088476;28;20051;-42
2022/03/30 07:00:35;;;;;;;1.85;0.20;;;7.40;99.90;;;;;;5088648;28;20628;-43
2022/03/30 07:03:01;;;;;;;1.05;0.20;;;7.90;99.90;;;;;;5087674;28;20052;-43
2022/03/30 07:05:27;;;;;;;0.90;0.20;;;7.60;99.90;;;;;;5088536;28;20107;-42
2022/03/30 07:10:38;;;;;;;0.73;0.20;;;8.00;99.90;;;;;;5088037;28;20332;-45
2022/03/30 07:13:03;;;;;;;1.70;0.30;;;7.90;99.90;;;;;;5087671;28;20040;-44
2022/03/30 07:15:30;;;;;;;1.10;0.28;;;7.80;99.90;;;;;;5088347;28;20100;-45
2022/03/30 07:18:00;;;;;;;0.82;0.20;;;7.90;99.90;;;;;;5087318;28;20043;-42
2022/03/30 07:20:27;;;;;;;2.42;0.77;;;7.90;99.90;;;;;;5087600;28;20048;-42
2022/03/30 07:22:59;;;;;;;1.48;0.20;;;7.90;99.90;;;;;;5088088;28;20036;-44
2022/03/30 07:25:25;;;;;;;3.95;0.30;;;7.80;99.90;;;;;;5088095;28;20044;-44
2022/03/30 07:27:54;;;;;;;1.75;0.20;;;7.70;99.90;;;;;;5088236;28;20048;-43
2022/03/30 07:30:21;;;;;;;1.13;0.30;;;7.70;99.90;;;;;;5087719;28;20385;-43
2022/03/30 07:32:49;;;;;;;0.77;0.20;;;7.60;99.90;;;;;;5087523;28;20052;-43
2022/03/30 07:35:18;;;;;;;2.22;0.50;;;7.50;99.90;;;;;;5087288;28;20036;-42
2022/03/30 07:37:45;;;;;;;1.27;0.30;;;7.50;99.90;;;;;;5087578;28;20044;-43
2022/03/30 07:40:13;;;;;;;1.15;0.22;;;7.50;99.90;;;;;;5087546;28;20036;-41
2022/03/30 07:42:40;;;;;;;1.15;0.30;;;7.50;99.90;;;;;;5087615;28;20111;-43
2022/03/30 07:45:07;;;;;;;1.98;0.30;;;8.00;99.90;;;;;;5087522;28;20039;-43
2022/03/30 07:47:33;;;;;;;2.13;0.40;;;7.70;99.90;;;;;;5087867;28;20044;-42
2022/03/30 07:49:59;;;;;;;3.70;0.40;;;7.80;99.90;;;;;;5087136;28;20126;-43
2022/03/30 07:52:28;;;;;;;4.53;0.50;;;8.00;99.90;;;;;;5087397;28;20036;-43
2022/03/30 07:54:54;;;;;;;2.25;0.30;;;8.10;99.90;;;;;;5088042;28;20378;-45
2022/03/30 07:57:26;;;;;;;1.85;0.20;;;8.20;99.90;;;;;;5089285;28;20458;-43
2022/03/30 07:59:57;;;;;;;2.17;0.27;;;8.50;99.90;;;;;;5091416;28;20734;-44
2022/03/30 08:02:23;;;;;;;3.85;0.47;;;8.50;99.90;;;;;;5090709;28;20087;-43
2022/03/30 08:04:49;;;;;;;1.73;0.30;;;8.70;99.90;;;;;;5091013;28;20048;-44
2022/03/30 08:07:15;;;;;;;3.40;0.32;;;8.80;99.90;;;;;;5090595;28;20044;-44
2022/03/30 08:09:45;;;;;;;1.88;0.30;;;9.00;99.90;;;;;;5090883;28;20398;-44
2022/03/30 08:12:12;;;;;;;2.40;0.20;;;9.20;99.90;;;;;;5090766;28;20052;-44
2022/03/30 08:14:38;;;;;;;2.63;0.22;;;9.20;99.90;;;;;;5091302;28;20047;-43
2022/03/30 08:17:13;;;;;;;4.30;0.30;;;9.70;99.90;;;;;;5090212;28;20435;-45
2022/03/30 08:19:39;;;;;;;3.80;0.38;;;9.70;99.90;;;;;;5059907;28;20036;-42
2022/03/30 08:24:49;;;;;;;2.53;0.30;;;10.10;99.90;;;;;;5090121;28;20051;-42
2022/03/30 08:27:17;;;;;;;3.13;0.40;;;10.20;99.90;;;;;;5090446;28;20394;-42
2022/03/30 08:29:46;;;;;;;2.88;0.50;;;10.30;99.90;;;;;;5091151;28;20594;-44
2022/03/30 08:32:13;;;;;;;2.35;0.20;;;10.70;99.90;;;;;;5090846;28;20044;-43
2022/03/30 08:34:39;;;;;;;2.38;0.20;;;10.50;99.70;;;;;;5090871;28;20048;-44
2022/03/30 08:37:06;;;;;;;3.78;0.63;;;10.30;98.90;;;;;;5072764;28;20083;-37
2022/03/30 08:39:38;;;;;;;3.50;0.35;;;10.20;98.40;;;;;;5090326;28;20090;-36
2022/03/30 08:42:05;;;;;;;2.50;0.20;;;10.10;97.80;;;;;;5091009;28;20075;-37
2022/03/30 08:44:33;;;;;;;2.92;0.20;;;9.70;98.00;;;;;;5090824;28;20119;-37
2022/03/30 08:46:59;;;;;;;4.53;1.05;;;9.50;97.90;;;;;;5090526;28;20051;-37
2022/03/30 08:49:27;;;;;;;4.78;0.75;;;9.30;97.60;;;;;;5070933;28;20677;-40
2022/03/30 08:51:54;;;;;;;2.20;0.20;;;9.20;98.20;;;;;;5090474;28;20062;-40
2022/03/30 08:54:20;;;;;;;3.42;0.32;;;9.10;98.00;;;;;;5090233;28;20109;-39
2022/03/30 08:56:47;;;;;;;3.00;0.55;;;9.00;97.30;;;;;;5089923;28;20048;-37
2022/03/30 08:59:21;;;;;;;3.30;0.60;;;9.10;98.20;;;;;;5071992;28;20074;-39
2022/03/30 09:01:49;;;;;;;2.92;0.20;;;9.30;97.90;;;;;;5090367;28;20036;-41
2022/03/30 09:04:18;;;;;;;4.60;0.70;;;9.50;97.40;;;;;;5089730;28;20063;-40
2022/03/30 09:06:44;;;;;;;3.78;0.35;;;9.70;96.90;;;;;;5090306;28;20127;-40
2022/03/30 09:09:11;;;;;;;2.88;0.20;;;9.90;96.70;;;;;;5089846;28;20135;-41
2022/03/30 09:11:40;;;;;;;4.57;0.93;;;10.00;96.20;;;;;;5089956;28;20100;-40
2022/03/30 09:14:07;;;;;;;5.18;0.50;;;10.30;94.90;;;;;;5090040;28;20101;-40
2022/03/30 09:16:51;;;;;;;5.35;1.52;;;10.30;94.60;;;;;;5089744;28;20119;-40
2022/03/30 09:19:19;;;;;;;3.85;0.55;;;10.30;93.00;;;;;;5089277;28;20043;-40
2022/03/30 09:21:59;;;;;;;4.72;0.93;;;10.20;93.80;;;;;;5089658;28;20524;-39
2022/03/30 09:24:30;;;;;;;4.57;0.40;;;10.00;93.30;;;;;;5089620;28;20036;-38
2022/03/30 09:26:58;;;;;;;4.75;0.47;;;9.70;93.00;;;;;;5089768;28;20048;-39
2022/03/30 09:29:27;;;;;;;5.50;0.50;;;9.60;93.70;;;;;;5089595;28;20159;-39
2022/03/30 09:31:53;;;;;;;6.82;0.80;;;9.80;94.10;;;;;;5089878;28;20052;-39
2022/03/30 09:34:20;;;;;;;3.53;0.47;;;9.60;94.60;;;;;;5089402;28;20040;-39
2022/03/30 09:36:49;;;;;;;2.53;0.50;;;9.60;94.50;;;;;;5089529;28;20130;-40
2022/03/30 09:39:33;;;;;;;4.43;0.70;;;9.40;94.00;;;;;;5088985;28;20760;-37
2022/03/30 09:42:00;;;;;;;5.05;0.50;;;9.20;93.90;;;;;;5071021;28;20040;-36
2022/03/30 09:44:28;;;;;;;1.80;0.40;;;9.10;94.10;;;;;;5089337;28;20411;-37
2022/03/30 09:47:03;;;;;;;4.18;0.43;;;9.00;94.30;;;;;;5089346;28;20080;-37
2022/03/30 09:49:39;;;;;;;3.40;0.30;;;9.60;95.00;;;;;;5088774;28;20047;-37
2022/03/30 09:52:16;;;;;;;2.05;0.38;;;9.10;95.10;;;;;;5089402;28;20056;-37
2022/03/30 09:54:49;;;;;;;3.92;0.47;;;9.60;96.00;;;;;;5089351;28;20043;-37
2022/03/30 09:57:24;;;;;;;1.38;0.17;;;10.00;95.10;;;;;;5089618;28;20125;-37
2022/03/30 10:00:07;;;;;;;4.00;0.30;;;10.50;93.80;;;;;;5088992;28;20028;-38
2022/03/30 10:02:39;;;;;;;2.83;0.30;;;10.40;92.40;;;;;;5089047;28;20139;-37
2022/03/30 10:05:07;;;;;;;4.75;0.40;;;10.80;92.70;;;;;;5088783;28;20553;-37
2022/03/30 10:07:34;;;;;;;3.20;0.20;;;11.20;92.70;;;;;;5088597;28;20051;-35
2022/03/30 10:10:00;;;;;;;0.98;0.30;;;11.60;92.60;;;;;;5089159;28;20036;-37
2022/03/30 10:12:27;;;;;;;4.97;0.85;;;12.10;91.80;;;;;;5088810;28;20040;-35
2022/03/30 10:14:54;;;;;;;3.47;0.30;;;13.40;91.30;;;;;;5070733;28;20044;-35
2022/03/30 10:17:20;;;;;;;2.28;0.30;;;12.70;90.00;;;;;;5087928;28;20048;-38
2022/03/30 10:19:46;;;;;;;3.13;0.40;;;12.60;86.60;;;;;;5088174;28;20493;-38
2022/03/30 10:22:34;;;;;;;3.97;0.30;;;12.50;86.40;;;;;;5088735;28;20040;-40
2022/03/30 10:25:34;;;;;;;1.30;0.20;;;12.30;84.50;;;;;;5088838;28;20775;-36
2022/03/30 10:28:23;;;;;;;3.80;0.60;;;12.10;83.10;;;;;;5089130;28;20044;-35
2022/03/30 10:30:54;;;;;;;0.95;0.10;;;11.80;79.00;;;;;;5070149;28;20055;-35
2022/03/30 10:33:36;;;;;;;3.20;0.73;;;12.40;83.50;;;;;;5070183;28;20055;-35
2022/03/30 10:36:25;;;;;;;3.63;0.40;;;11.60;82.00;;;;;;5088751;28;20040;-35
2022/03/30 10:39:24;;;;;;;1.10;0.20;;;11.70;83.30;;;;;;5088614;28;20048;-37
2022/03/30 10:42:22;;;;;;;1.17;0.10;;;11.60;82.00;;;;;;5088654;28;20111;-36
2022/03/30 10:44:57;;;;;;;2.65;0.38;;;11.60;80.50;;;;;;5088107;28;20039;-38
2022/03/30 10:47:26;;;;;;;2.15;0.20;;;11.30;80.60;;;;;;5088042;28;20158;-34
2022/03/30 10:50:00;;;;;;;3.45;0.20;;;11.00;80.10;;;;;;5088413;28;20044;-37
2022/03/30 10:52:40;;;;;;;3.47;0.55;;;10.60;78.70;;;;;;5088781;28;20036;-37
2022/03/30 10:55:14;;;;;;;2.63;0.35;;;10.70;81.20;;;;;;5088531;28;20059;-37
2022/03/30 10:57:52;;;;;;;1.33;0.50;;;10.60;80.00;;;;;;5088397;28;20039;-37
2022/03/30 11:00:20;;;;;;;3.90;0.40;;;10.60;81.60;;;;;;5088489;28;20402;-37
2022/03/30 11:02:46;;;;;;;3.30;0.43;;;10.60;81.30;;;;;;5088070;28;20105;-38
2022/03/30 11:05:17;;;;;;;3.92;0.30;;;10.40;80.40;;;;;;5088647;28;20052;-37
2022/03/30 11:07:43;;;;;;;2.67;0.40;;;10.30;80.10;;;;;;5088825;28;20215;-38
2022/03/30 11:10:27;;;;;;;2.53;0.20;;;10.30;81.80;;;;;;5088569;28;20040;-37
2022/03/30 11:13:03;;;;;;;3.58;0.22;;;10.40;79.00;;;;;;5088448;28;20059;-38
2022/03/30 11:15:31;;;;;;;2.28;0.40;;;10.20;80.20;;;;;;5088417;28;20123;-40
2022/03/30 11:18:18;;;;;;;2.25;0.20;;;9.90;80.50;;;;;;5087416;28;20059;-36
2022/03/30 11:21:13;;;;;;;3.70;0.20;;;9.90;80.70;;;;;;5087621;28;20051;-36
2022/03/30 11:23:39;;;;;;;3.70;0.32;;;9.70;82.00;;;;;;5088203;28;20040;-36
2022/03/30 11:26:05;;;;;;;2.78;0.20;;;10.00;82.60;;;;;;5070167;28;20417;-34
2022/03/30 11:28:38;;;;;;;2.58;0.40;;;9.60;81.90;;;;;;5088044;28;20052;-35
2022/03/30 11:31:22;;;;;;;2.28;0.20;;;10.40;82.70;;;;;;5088332;28;20049;-35
2022/03/30 11:34:22;;;;;;;3.90;0.52;;;9.80;81.40;;;;;;5091896;28;20028;-35
2022/03/30 11:36:48;;;;;;;2.10;0.50;;;10.00;81.20;;;;;;5091323;28;20040;-36
2022/03/30 11:39:17;;;;;;;4.60;0.30;;;10.30;81.80;;;;;;5092288;28;20040;-35
2022/03/30 11:41:53;;;;;;;1.85;0.50;;;10.20;80.40;;;;;;5091331;28;20055;-35
2022/03/30 11:47:05;;;;;;;1.77;0.20;;;10.10;79.10;;;;;;5091058;28;20059;-35
2022/03/30 11:49:31;;;;;;;3.33;0.40;;;10.20;79.40;;;;;;5091425;28;20481;-35
2022/03/30 11:52:13;;;;;;;4.05;0.25;;;10.30;78.70;;;;;;5091842;28;20059;-36
2022/03/30 11:54:47;;;;;;;3.33;0.20;;;10.20;77.10;;;;;;5091237;28;20063;-35
2022/03/30 11:57:13;;;;;;;3.47;0.20;;;10.20;77.70;;;;;;5091138;28;20055;-37
2022/03/30 11:59:39;;;;;;;2.47;0.20;;;10.20;79.50;;;;;;5091268;28;20558;-35
2022/03/30 12:02:05;;;;;;;1.63;0.40;;;10.50;78.70;;;;;;5091355;28;20040;-37
2022/03/30 12:04:32;;;;;;;1.25;0.28;;;10.70;78.70;;;;;;5091414;28;20398;-35
2022/03/30 12:06:57;;;;;;;3.88;0.50;;;10.40;79.40;;;;;;5091173;28;20040;-35
2022/03/30 12:09:23;;;;;;;2.95;0.28;;;10.30;78.80;;;;;;5091560;28;20043;-35
2022/03/30 12:11:49;;;;;;;2.85;0.22;;;10.20;79.30;;;;;;5091284;28;20173;-36
2022/03/30 12:14:27;;;;;;;1.42;0.20;;;10.30;78.60;;;;;;5091918;28;20044;-36
2022/03/30 12:16:53;;;;;;;7.72;0.50;;;10.40;77.90;;;;;;5090591;28;20671;-36
2022/03/30 12:19:19;;;;;;;5.15;0.30;;;10.40;78.20;;;;;;5091337;28;20052;-37
2022/03/30 12:21:45;;;;;;;3.78;0.38;;;10.50;78.20;;;;;;5091128;28;20090;-37
2022/03/30 12:24:12;;;;;;;2.83;0.50;;;10.70;78.20;;;;;;5090978;28;20429;-38
2022/03/30 12:26:41;;;;;;;5.70;0.90;;;10.80;77.20;;;;;;5090386;28;20047;-38
2022/03/30 12:29:09;;;;;;;2.97;0.32;;;10.90;77.10;;;;;;5090796;28;20048;-38
2022/03/30 12:31:40;;;;;;;2.35;0.20;;;10.90;75.50;;;;;;5090412;28;20168;-40
2022/03/30 12:34:11;;;;;;;1.77;0.20;;;10.60;76.00;;;;;;5071828;28;20040;-40
2022/03/30 12:36:42;;;;;;;3.30;0.20;;;10.50;76.50;;;;;;5090182;28;20040;-39
2022/03/30 12:39:20;;;;;;;2.72;0.30;;;10.40;76.80;;;;;;5090347;28;20047;-40
2022/03/30 12:42:35;;;;;;;4.00;0.50;;;10.40;77.00;;;;;;5090052;28;20036;-38
2022/03/30 12:45:05;;;;;;;5.95;0.50;;;10.00;76.30;;;;;;5068296;28;20048;-40
2022/03/30 12:47:44;;;;;;;2.42;0.40;;;10.20;77.50;;;;;;5071613;28;20127;-38
2022/03/30 12:50:17;;;;;;;0.98;0.20;;;10.00;77.30;;;;;;5090180;28;20759;-39
2022/03/30 12:52:51;;;;;;;4.07;0.30;;;9.70;77.10;;;;;;5090056;28;20040;-39
2022/03/30 12:55:24;;;;;;;2.13;0.30;;;9.70;76.40;;;;;;5090353;28;20128;-39
2022/03/30 12:58:14;;;;;;;2.63;0.30;;;9.90;77.30;;;;;;5089841;28;20059;-37
2022/03/30 13:00:44;;;;;;;1.52;0.85;;;10.00;77.50;;;;;;5090204;28;20069;-37
2022/03/30 13:03:14;;;;;;;4.82;1.20;;;10.20;77.80;;;;;;5090046;28;20048;-37